Time;durP1;ratioP1;P1;durP2;ratioP2;P2;SDS_P1;SDS_P2;PMS_P1;PMS_P2;Temp;Humidity;BMP_temperature;BMP_pressure;BME280_temperature;BME280_humidity;BME280_pressure;Samples;Min_cycle;Max_cycle;Signal;HPM_P1;HPM_P2
2023/02/11 00:01:07;;;;;;;;;71.33;58.00;;;;;;;;5048795;28;8802;-82
2023/02/11 00:03:34;;;;;;;;;68.67;55.67;;;;;;;;5047209;28;8852;-82
2023/02/11 00:06:03;;;;;;;;;72.00;57.00;;;;;;;;5051662;28;9023;-81
2023/02/11 00:08:30;;;;;;;;;64.00;53.33;;;;;;;;5048640;28;8836;-81
2023/02/11 00:10:59;;;;;;;;;78.00;63.00;;;;;;;;5049427;28;8857;-82
2023/02/11 00:13:27;;;;;;;;;77.67;58.67;;;;;;;;5046666;28;8848;-81
2023/02/11 00:15:55;;;;;;;;;70.33;58.00;;;;;;;;5043240;28;8840;-81
2023/02/11 00:18:22;;;;;;;;;79.00;63.33;;;;;;;;5046590;28;8850;-82
2023/02/11 00:20:49;;;;;;;;;72.33;59.67;;;;;;;;5048242;28;8838;-81
2023/02/11 00:23:17;;;;;;;;;80.00;64.33;;;;;;;;5040461;28;8898;-82
2023/02/11 00:25:45;;;;;;;;;76.33;60.00;;;;;;;;5048372;28;8853;-82
2023/02/11 00:28:14;;;;;;;;;80.67;64.67;;;;;;;;5049476;28;8858;-82
2023/02/11 00:30:42;;;;;;;;;74.67;59.33;;;;;;;;5043379;28;8909;-81
2023/02/11 00:33:09;;;;;;;;;81.00;62.67;;;;;;;;5039356;28;8954;-81
2023/02/11 00:35:38;;;;;;;;;69.33;57.67;;;;;;;;5047111;28;9007;-82
2023/02/11 00:38:05;;;;;;;;;78.67;62.00;;;;;;;;5039939;28;8901;-82
2023/02/11 00:40:32;;;;;;;;;83.33;62.33;;;;;;;;5038067;28;8845;-82
2023/02/11 00:43:00;;;;;;;;;78.33;59.67;;;;;;;;5040421;28;8861;-83
2023/02/11 00:45:29;;;;;;;;;69.67;57.00;;;;;;;;5026909;28;8993;-82
2023/02/11 00:47:57;;;;;;;;;71.00;58.33;;;;;;;;5046442;28;8909;-83
2023/02/11 00:50:24;;;;;;;;;69.33;55.33;;;;;;;;5046498;28;8884;-82
2023/02/11 00:52:52;;;;;;;;;73.67;60.67;;;;;;;;5038478;28;8977;-82
2023/02/11 00:55:19;;;;;;;;;70.67;57.00;;;;;;;;5041503;28;8949;-82
2023/02/11 00:57:47;;;;;;;;;64.67;53.67;;;;;;;;5047768;28;8855;-82
2023/02/11 01:00:15;;;;;;;;;72.67;58.33;;;;;;;;5047115;28;8866;-82
2023/02/11 01:02:44;;;;;;;;;67.33;53.33;;;;;;;;5045008;28;8969;-81
2023/02/11 01:05:12;;;;;;;;;56.67;47.00;;;;;;;;5044975;28;8854;-81
2023/02/11 01:07:39;;;;;;;;;68.67;49.00;;;;;;;;5041843;28;8873;-83
2023/02/11 01:10:07;;;;;;;;;68.00;53.67;;;;;;;;5044544;28;8854;-82
2023/02/11 01:12:34;;;;;;;;;70.33;56.00;;;;;;;;5040657;28;8883;-81
2023/02/11 01:15:02;;;;;;;;;72.00;57.00;;;;;;;;5040086;28;8960;-82
2023/02/11 01:17:29;;;;;;;;;66.67;56.33;;;;;;;;5045235;28;8876;-81
2023/02/11 01:19:57;;;;;;;;;71.00;56.67;;;;;;;;5042252;28;8862;-82
2023/02/11 01:22:25;;;;;;;;;68.67;56.00;;;;;;;;5040625;28;8885;-82
2023/02/11 01:24:52;;;;;;;;;58.00;51.00;;;;;;;;5041340;28;8855;-82
2023/02/11 01:27:19;;;;;;;;;69.00;57.00;;;;;;;;5042687;28;8856;-81
2023/02/11 01:29:47;;;;;;;;;71.67;56.00;;;;;;;;5041033;28;8875;-81
2023/02/11 01:32:14;;;;;;;;;63.33;53.33;;;;;;;;5038837;28;8791;-82
2023/02/11 01:34:42;;;;;;;;;63.67;53.00;;;;;;;;5040759;28;8847;-81
2023/02/11 01:37:10;;;;;;;;;67.67;54.00;;;;;;;;5048063;28;8855;-82
2023/02/11 01:39:38;;;;;;;;;65.00;51.33;;;;;;;;5047572;28;8846;-82
2023/02/11 01:42:05;;;;;;;;;62.67;51.33;;;;;;;;5051526;28;8868;-82
2023/02/11 01:44:36;;;;;;;;;65.67;53.00;;;;;;;;5046801;28;8989;-82
2023/02/11 01:47:05;;;;;;;;;60.33;50.00;;;;;;;;5042254;28;8842;-81
2023/02/11 01:49:35;;;;;;;;;71.00;56.33;;;;;;;;5051314;28;8871;-81
2023/02/11 01:52:05;;;;;;;;;71.33;58.33;;;;;;;;5055545;28;8974;-82
2023/02/11 01:57:24;;;;;;;;;70.00;56.33;;;;;;;;5047884;28;9318;-82
2023/02/11 02:00:07;;;;;;;;;70.33;58.00;;;;;;;;5050327;28;8864;-81
2023/02/11 02:02:40;;;;;;;;;66.00;55.67;;;;;;;;5046294;28;9261;-82
2023/02/11 02:05:15;;;;;;;;;69.00;54.67;;;;;;;;5049163;28;8900;-82
2023/02/11 02:07:49;;;;;;;;;71.33;56.67;;;;;;;;5047439;28;8885;-81
2023/02/11 02:10:23;;;;;;;;;69.67;57.67;;;;;;;;5047777;28;8844;-81
2023/02/11 02:12:50;;;;;;;;;61.67;49.67;;;;;;;;5046954;28;8983;-82
2023/02/11 02:15:29;;;;;;;;;70.00;53.33;;;;;;;;5047980;28;8863;-81
2023/02/11 02:18:04;;;;;;;;;66.33;55.00;;;;;;;;5050622;28;8866;-81
2023/02/11 02:21:03;;;;;;;;;61.33;49.00;;;;;;;;5046295;28;8968;-81
2023/02/11 02:23:53;;;;;;;;;63.00;52.00;;;;;;;;5044331;28;8977;-82
2023/02/11 02:26:30;;;;;;;;;65.67;53.33;;;;;;;;5040701;28;8861;-83
2023/02/11 02:29:19;;;;;;;;;73.67;59.67;;;;;;;;5043630;28;8869;-82
2023/02/11 02:32:14;;;;;;;;;76.67;59.00;;;;;;;;5042859;28;9436;-83
2023/02/11 02:34:48;;;;;;;;;68.33;52.67;;;;;;;;5038407;28;9667;-82
2023/02/11 02:37:19;;;;;;;;;67.33;53.00;;;;;;;;5050513;28;8838;-82
2023/02/11 02:39:47;;;;;;;;;73.33;59.00;;;;;;;;5047308;28;8969;-82
2023/02/11 02:42:15;;;;;;;;;55.33;46.67;;;;;;;;5049747;28;8870;-82
2023/02/11 02:44:49;;;;;;;;;77.67;61.00;;;;;;;;5047481;28;8886;-83
2023/02/11 02:47:16;;;;;;;;;72.33;58.00;;;;;;;;5045648;28;8824;-82
2023/02/11 02:49:48;;;;;;;;;72.67;60.33;;;;;;;;5041442;28;8842;-82
2023/02/11 02:52:28;;;;;;;;;77.33;62.00;;;;;;;;5047961;28;8839;-82
2023/02/11 02:55:25;;;;;;;;;77.67;61.67;;;;;;;;5046128;28;8964;-82
2023/02/11 02:58:17;;;;;;;;;69.33;58.67;;;;;;;;5041025;28;8845;-81
2023/02/11 03:00:55;;;;;;;;;68.67;59.33;;;;;;;;5023118;28;8797;-82
2023/02/11 03:03:30;;;;;;;;;79.67;63.00;;;;;;;;5041710;28;8953;-82
2023/02/11 03:06:03;;;;;;;;;76.00;61.33;;;;;;;;5046708;28;8973;-82
2023/02/11 03:08:34;;;;;;;;;78.00;62.67;;;;;;;;5046100;28;8868;-83
2023/02/11 03:11:03;;;;;;;;;78.00;62.33;;;;;;;;5042117;28;8854;-82
2023/02/11 03:13:32;;;;;;;;;77.67;64.33;;;;;;;;5046480;28;8865;-82
2023/02/11 03:16:04;;;;;;;;;78.00;63.00;;;;;;;;5040646;28;9031;-81
2023/02/11 03:18:35;;;;;;;;;78.67;62.00;;;;;;;;5043266;28;8907;-81
2023/02/11 03:21:06;;;;;;;;;77.67;61.67;;;;;;;;5046070;28;8953;-81
2023/02/11 03:23:37;;;;;;;;;75.67;61.00;;;;;;;;5039096;28;9009;-81
2023/02/11 03:26:09;;;;;;;;;79.67;63.67;;;;;;;;5047236;28;8834;-81
2023/02/11 03:28:42;;;;;;;;;77.67;60.00;;;;;;;;5046763;28;8965;-82
2023/02/11 03:31:12;;;;;;;;;79.33;63.00;;;;;;;;5042687;28;8835;-81
2023/02/11 03:33:43;;;;;;;;;78.00;61.67;;;;;;;;5046380;28;8843;-82
2023/02/11 03:36:16;;;;;;;;;80.33;64.00;;;;;;;;5039028;28;8842;-83
2023/02/11 03:38:47;;;;;;;;;86.00;69.00;;;;;;;;5040194;28;8875;-80
2023/02/11 03:41:15;;;;;;;;;76.33;62.00;;;;;;;;5040305;28;8969;-81
2023/02/11 03:43:45;;;;;;;;;73.33;56.00;;;;;;;;5043508;28;8889;-81
2023/02/11 03:46:14;;;;;;;;;66.67;55.00;;;;;;;;5046731;28;8844;-81
2023/02/11 03:48:44;;;;;;;;;75.33;61.67;;;;;;;;5045825;28;8860;-81
2023/02/11 03:51:15;;;;;;;;;77.33;61.00;;;;;;;;5046236;28;9014;-81
2023/02/11 03:53:44;;;;;;;;;73.33;61.00;;;;;;;;5043317;28;8843;-80
2023/02/11 03:56:15;;;;;;;;;74.00;56.67;;;;;;;;5045181;28;8846;-81
2023/02/11 03:58:45;;;;;;;;;70.33;60.00;;;;;;;;5046755;28;8971;-81
2023/02/11 04:01:12;;;;;;;;;72.67;56.00;;;;;;;;5044213;28;9238;-81
2023/02/11 04:03:39;;;;;;;;;68.00;56.00;;;;;;;;5043804;28;8850;-80
2023/02/11 04:06:07;;;;;;;;;81.00;64.00;;;;;;;;5042162;28;8876;-81
2023/02/11 04:08:36;;;;;;;;;74.00;59.33;;;;;;;;5042092;28;8847;-81
2023/02/11 04:11:04;;;;;;;;;83.33;61.67;;;;;;;;5043000;28;9704;-81
2023/02/11 04:13:31;;;;;;;;;79.33;58.67;;;;;;;;5042613;28;8835;-80
2023/02/11 04:15:59;;;;;;;;;71.67;58.67;;;;;;;;5047354;28;8866;-81
2023/02/11 04:18:26;;;;;;;;;70.33;55.00;;;;;;;;5045054;28;9015;-81
2023/02/11 04:20:53;;;;;;;;;78.00;62.33;;;;;;;;5040619;28;8840;-79
2023/02/11 04:23:21;;;;;;;;;70.67;58.33;;;;;;;;5042237;28;8812;-80
2023/02/11 04:25:51;;;;;;;;;74.33;59.67;;;;;;;;5041668;28;8981;-81
2023/02/11 04:28:19;;;;;;;;;77.00;59.67;;;;;;;;5044989;28;8859;-82
2023/02/11 04:30:46;;;;;;;;;75.33;61.67;;;;;;;;5040678;28;8818;-81
2023/02/11 04:33:14;;;;;;;;;79.33;62.00;;;;;;;;5048215;28;8863;-81
2023/02/11 04:35:41;;;;;;;;;75.00;58.00;;;;;;;;5041332;28;8855;-81
2023/02/11 04:38:08;;;;;;;;;78.00;62.00;;;;;;;;5044785;28;8850;-81
2023/02/11 04:40:35;;;;;;;;;59.00;50.00;;;;;;;;5047421;28;8852;-81
2023/02/11 04:43:05;;;;;;;;;69.33;58.00;;;;;;;;5038384;28;8870;-81
2023/02/11 04:45:33;;;;;;;;;71.33;56.00;;;;;;;;5046309;28;8855;-81
2023/02/11 04:48:03;;;;;;;;;70.00;58.67;;;;;;;;5035006;28;9168;-82
2023/02/11 04:50:30;;;;;;;;;71.67;57.00;;;;;;;;5042864;28;9751;-81
2023/02/11 04:52:58;;;;;;;;;80.67;61.00;;;;;;;;5039475;28;8863;-82
2023/02/11 04:55:25;;;;;;;;;76.33;60.67;;;;;;;;5045756;28;8846;-81
2023/02/11 04:57:54;;;;;;;;;72.67;60.00;;;;;;;;5041423;28;9016;-81
2023/02/11 05:00:23;;;;;;;;;83.33;63.67;;;;;;;;5042752;28;8840;-80
2023/02/11 05:02:50;;;;;;;;;83.67;67.00;;;;;;;;5039356;28;8869;-81
2023/02/11 05:05:18;;;;;;;;;83.33;68.00;;;;;;;;5043375;28;8988;-80
2023/02/11 05:07:45;;;;;;;;;86.33;68.67;;;;;;;;5041676;28;8885;-81
2023/02/11 05:10:12;;;;;;;;;84.33;66.33;;;;;;;;5042968;28;8886;-81
2023/02/11 05:12:40;;;;;;;;;76.00;61.33;;;;;;;;5043302;28;8854;-81
2023/02/11 05:15:08;;;;;;;;;84.00;64.00;;;;;;;;5047786;28;8853;-80
2023/02/11 05:17:36;;;;;;;;;68.33;58.33;;;;;;;;5047747;28;9023;-81
2023/02/11 05:20:05;;;;;;;;;78.67;59.67;;;;;;;;5044828;28;9698;-81
2023/02/11 05:22:32;;;;;;;;;82.00;64.33;;;;;;;;5041128;28;8849;-81
2023/02/11 05:24:59;;;;;;;;;74.33;61.00;;;;;;;;5047265;28;8871;-81
2023/02/11 05:27:26;;;;;;;;;86.67;65.67;;;;;;;;5045878;28;8871;-80
2023/02/11 05:29:54;;;;;;;;;80.33;61.33;;;;;;;;5044755;28;8988;-81
2023/02/11 05:32:21;;;;;;;;;92.00;72.67;;;;;;;;5048050;28;8811;-81
2023/02/11 05:34:50;;;;;;;;;93.00;69.00;;;;;;;;5056209;28;8848;-80
2023/02/11 05:37:17;;;;;;;;;89.75;69.50;;;;;;;;5050010;28;8873;-81
2023/02/11 05:39:45;;;;;;;;;89.00;69.67;;;;;;;;5042402;28;8832;-81
2023/02/11 05:42:12;;;;;;;;;93.67;71.67;;;;;;;;5047007;28;8865;-81
2023/02/11 05:44:39;;;;;;;;;85.00;66.00;;;;;;;;5045958;28;9259;-79
2023/02/11 05:47:08;;;;;;;;;90.50;72.25;;;;;;;;5044958;28;8893;-81
2023/02/11 05:49:35;;;;;;;;;91.33;75.33;;;;;;;;5049359;28;8883;-84
2023/02/11 05:52:04;;;;;;;;;90.67;70.33;;;;;;;;5051397;28;8848;-81
2023/02/11 05:54:32;;;;;;;;;92.33;72.33;;;;;;;;5042617;28;8835;-81
2023/02/11 05:56:59;;;;;;;;;88.00;71.00;;;;;;;;5044634;28;8882;-82
2023/02/11 05:59:26;;;;;;;;;93.67;76.00;;;;;;;;5044572;28;8989;-82
2023/02/11 06:01:54;;;;;;;;;90.33;69.67;;;;;;;;5024275;28;8787;-82
2023/02/11 06:04:21;;;;;;;;;91.67;75.00;;;;;;;;5046853;28;8967;-82
2023/02/11 06:06:49;;;;;;;;;86.33;69.00;;;;;;;;5043303;28;8836;-82
2023/02/11 06:09:21;;;;;;;;;88.67;72.33;;;;;;;;5048422;28;8938;-81
2023/02/11 06:11:48;;;;;;;;;90.67;72.67;;;;;;;;5046752;28;9646;-81
2023/02/11 06:14:15;;;;;;;;;90.33;69.00;;;;;;;;5046548;28;8936;-81
2023/02/11 06:16:43;;;;;;;;;97.67;83.67;;;;;;;;5040110;28;9692;-81
2023/02/11 06:19:10;;;;;;;;;87.67;68.67;;;;;;;;5041575;28;8855;-81
2023/02/11 06:21:38;;;;;;;;;90.67;70.67;;;;;;;;5043309;28;8859;-80
2023/02/11 06:24:07;;;;;;;;;93.67;75.33;;;;;;;;5021358;28;8852;-75
2023/02/11 06:26:50;;;;;;;;;93.33;73.00;;;;;;;;5054350;28;8856;-77
2023/02/11 06:29:17;;;;;;;;;93.00;75.67;;;;;;;;5040988;28;8889;-76
2023/02/11 06:31:45;;;;;;;;;92.67;76.00;;;;;;;;5042923;28;8851;-77
2023/02/11 06:34:12;;;;;;;;;90.33;69.67;;;;;;;;5043740;28;8909;-76
2023/02/11 06:36:40;;;;;;;;;82.33;67.00;;;;;;;;5041438;28;8904;-76
2023/02/11 06:39:08;;;;;;;;;87.67;68.67;;;;;;;;5046130;28;8982;-75
2023/02/11 06:41:36;;;;;;;;;88.67;69.67;;;;;;;;5045017;28;8855;-75
2023/02/11 06:44:05;;;;;;;;;79.67;64.00;;;;;;;;5041021;28;8854;-74
2023/02/11 06:46:32;;;;;;;;;82.33;63.67;;;;;;;;5046585;28;8860;-75
2023/02/11 06:48:59;;;;;;;;;76.33;61.67;;;;;;;;5041272;28;8861;-72
2023/02/11 06:51:27;;;;;;;;;80.67;66.00;;;;;;;;5040244;28;8873;-75
2023/02/11 06:53:54;;;;;;;;;79.67;65.67;;;;;;;;5042127;28;8935;-73
2023/02/11 06:56:23;;;;;;;;;93.67;75.67;;;;;;;;5040810;28;8854;-74
2023/02/11 06:58:54;;;;;;;;;83.67;64.67;;;;;;;;5042606;28;8868;-77
2023/02/11 07:01:24;;;;;;;;;85.67;67.67;;;;;;;;5039841;28;8806;-75
2023/02/11 07:03:51;;;;;;;;;83.00;64.67;;;;;;;;5043180;28;8862;-76
2023/02/11 07:06:21;;;;;;;;;80.33;64.33;;;;;;;;5042260;28;8836;-76
2023/02/11 07:08:49;;;;;;;;;80.00;66.67;;;;;;;;5040497;28;8908;-74
2023/02/11 07:11:18;;;;;;;;;80.33;65.33;;;;;;;;5042232;28;8830;-72
2023/02/11 07:13:45;;;;;;;;;83.33;64.33;;;;;;;;5042279;28;8839;-71
2023/02/11 07:16:15;;;;;;;;;82.67;64.67;;;;;;;;5038945;28;8858;-73
2023/02/11 07:18:44;;;;;;;;;79.33;64.00;;;;;;;;5045717;28;8864;-72
2023/02/11 07:21:16;;;;;;;;;81.33;65.33;;;;;;;;5041803;28;8828;-72
2023/02/11 07:23:44;;;;;;;;;81.33;65.33;;;;;;;;5044038;28;8866;-74
2023/02/11 07:26:13;;;;;;;;;80.33;64.67;;;;;;;;5040739;28;8873;-72
2023/02/11 07:28:41;;;;;;;;;78.67;64.33;;;;;;;;5045620;28;8852;-73
2023/02/11 07:31:09;;;;;;;;;82.00;63.67;;;;;;;;5041785;28;8961;-74
2023/02/11 07:33:37;;;;;;;;;82.67;64.67;;;;;;;;5041556;28;8836;-75
2023/02/11 07:36:07;;;;;;;;;90.67;73.67;;;;;;;;5040201;28;8876;-74
2023/02/11 07:38:35;;;;;;;;;84.33;67.00;;;;;;;;5040179;28;8847;-75
2023/02/11 07:41:03;;;;;;;;;78.33;62.33;;;;;;;;5043260;28;9557;-75
2023/02/11 07:43:31;;;;;;;;;87.33;68.33;;;;;;;;5040696;28;8834;-74
2023/02/11 07:45:58;;;;;;;;;88.67;68.00;;;;;;;;5042545;28;8862;-74
2023/02/11 07:48:26;;;;;;;;;93.67;82.00;;;;;;;;5047842;28;8946;-74
2023/02/11 07:50:53;;;;;;;;;94.00;76.33;;;;;;;;5043359;28;8858;-73
2023/02/11 07:53:21;;;;;;;;;90.33;78.00;;;;;;;;5042589;28;8982;-74
2023/02/11 07:55:49;;;;;;;;;89.33;71.00;;;;;;;;5041297;28;8853;-73
2023/02/11 07:58:16;;;;;;;;;91.33;73.00;;;;;;;;5044131;28;8889;-74
2023/02/11 08:00:44;;;;;;;;;89.25;72.25;;;;;;;;5047858;28;8879;-75
2023/02/11 08:03:12;;;;;;;;;111.00;101.50;;;;;;;;5026679;28;8883;-76
2023/02/11 08:05:39;;;;;;;;;89.00;72.00;;;;;;;;5047013;28;8881;-75
2023/02/11 08:08:06;;;;;;;;;93.33;78.33;;;;;;;;5044041;28;8973;-75
2023/02/11 08:10:35;;;;;;;;;92.33;75.67;;;;;;;;5045081;28;8844;-74
2023/02/11 08:13:03;;;;;;;;;96.67;83.33;;;;;;;;5042660;28;8846;-72
2023/02/11 08:15:30;;;;;;;;;100.67;86.00;;;;;;;;5041155;28;8877;-71
2023/02/11 08:17:57;;;;;;;;;94.67;79.33;;;;;;;;5042148;28;8805;-72
2023/02/11 08:20:26;;;;;;;;;97.33;85.67;;;;;;;;5045243;28;8961;-72
2023/02/11 08:22:53;;;;;;;;;97.00;78.00;;;;;;;;5044704;28;8862;-72
2023/02/11 08:25:20;;;;;;;;;94.00;78.33;;;;;;;;5039626;28;8849;-72
2023/02/11 08:27:49;;;;;;;;;101.67;93.67;;;;;;;;5041027;28;8851;-72
2023/02/11 08:30:16;;;;;;;;;107.00;99.75;;;;;;;;5041688;28;9786;-73
2023/02/11 08:32:44;;;;;;;;;99.00;90.67;;;;;;;;5040831;28;8836;-72
2023/02/11 08:35:12;;;;;;;;;87.67;70.33;;;;;;;;5041278;28;8843;-73
2023/02/11 08:37:39;;;;;;;;;85.00;65.67;;;;;;;;5039993;28;8864;-72
2023/02/11 08:40:07;;;;;;;;;85.67;68.00;;;;;;;;5041021;28;8822;-72
2023/02/11 08:42:34;;;;;;;;;79.67;63.67;;;;;;;;5042493;28;8967;-72
2023/02/11 08:45:03;;;;;;;;;88.33;67.33;;;;;;;;5043505;28;8857;-73
2023/02/11 08:47:31;;;;;;;;;86.00;68.00;;;;;;;;5048021;28;8832;-72
2023/02/11 08:49:58;;;;;;;;;89.00;71.67;;;;;;;;5043451;28;8846;-72
2023/02/11 08:52:26;;;;;;;;;85.33;67.00;;;;;;;;5046938;28;8828;-72
2023/02/11 08:54:53;;;;;;;;;80.00;62.00;;;;;;;;5042598;28;8840;-73
2023/02/11 08:57:21;;;;;;;;;81.00;65.00;;;;;;;;5047383;28;8872;-76
2023/02/11 08:59:48;;;;;;;;;86.33;66.67;;;;;;;;5037897;28;8940;-72
2023/02/11 09:02:17;;;;;;;;;86.00;69.33;;;;;;;;5029602;28;8807;-71
2023/02/11 09:04:44;;;;;;;;;76.00;59.33;;;;;;;;5035206;28;8865;-72
2023/02/11 09:07:12;;;;;;;;;90.00;78.00;;;;;;;;5038681;28;8955;-72
2023/02/11 09:09:39;;;;;;;;;88.33;70.00;;;;;;;;5041564;28;8887;-71
2023/02/11 09:12:07;;;;;;;;;85.67;68.00;;;;;;;;5038800;28;8858;-72
2023/02/11 09:14:34;;;;;;;;;84.33;66.00;;;;;;;;5037714;28;8836;-72
2023/02/11 09:17:01;;;;;;;;;87.67;63.33;;;;;;;;5034979;28;9235;-72
2023/02/11 09:19:30;;;;;;;;;85.33;65.67;;;;;;;;5034216;28;8965;-72
2023/02/11 09:21:57;;;;;;;;;93.00;79.00;;;;;;;;5037644;28;8892;-72
2023/02/11 09:24:25;;;;;;;;;90.00;74.67;;;;;;;;5036328;28;8880;-72
2023/02/11 09:26:52;;;;;;;;;88.67;71.33;;;;;;;;5034086;28;8880;-73
2023/02/11 09:29:19;;;;;;;;;89.67;72.33;;;;;;;;5037667;28;9263;-73
2023/02/11 09:31:46;;;;;;;;;81.33;63.67;;;;;;;;5039128;28;8893;-75
2023/02/11 09:34:14;;;;;;;;;81.67;63.00;;;;;;;;5033142;28;8878;-74
2023/02/11 09:36:43;;;;;;;;;88.00;65.67;;;;;;;;5038742;28;8862;-74
2023/02/11 09:39:13;;;;;;;;;83.00;66.00;;;;;;;;5041625;28;8884;-72
2023/02/11 09:42:09;;;;;;;;;76.67;60.33;;;;;;;;5039959;28;8854;-72
2023/02/11 09:44:38;;;;;;;;;77.00;59.33;;;;;;;;5036115;28;8851;-74
2023/02/11 09:47:07;;;;;;;;;69.67;57.33;;;;;;;;5039020;28;8851;-73
2023/02/11 09:49:39;;;;;;;;;83.00;63.33;;;;;;;;5042714;28;8870;-75
2023/02/11 09:52:14;;;;;;;;;81.33;64.33;;;;;;;;5038965;28;8836;-77
2023/02/11 09:54:55;;;;;;;;;84.00;65.67;;;;;;;;5040631;28;8858;-74
2023/02/11 09:57:22;;;;;;;;;77.00;61.00;;;;;;;;5043758;28;8846;-74
2023/02/11 09:59:49;;;;;;;;;78.67;61.33;;;;;;;;5043824;28;8844;-74
2023/02/11 10:02:23;;;;;;;;;82.33;66.00;;;;;;;;5038742;28;8807;-75
2023/02/11 10:05:11;;;;;;;;;77.67;63.00;;;;;;;;5041410;28;8859;-74
2023/02/11 10:07:46;;;;;;;;;81.00;63.33;;;;;;;;5041520;28;8872;-73
2023/02/11 10:10:21;;;;;;;;;86.67;63.67;;;;;;;;5037459;28;8838;-73
2023/02/11 10:13:06;;;;;;;;;86.67;71.00;;;;;;;;5046020;28;11577;-73
2023/02/11 10:15:43;;;;;;;;;81.00;64.67;;;;;;;;5037534;28;8890;-73
2023/02/11 10:18:30;;;;;;;;;82.33;65.00;;;;;;;;5040838;28;8862;-73
2023/02/11 10:21:07;;;;;;;;;77.67;63.00;;;;;;;;5037538;28;8862;-73
2023/02/11 10:23:38;;;;;;;;;76.67;62.00;;;;;;;;5032855;28;8867;-73
2023/02/11 10:26:12;;;;;;;;;78.33;62.33;;;;;;;;5037842;28;11562;-73
2023/02/11 10:28:40;;;;;;;;;77.33;61.33;;;;;;;;5036500;28;11582;-74
2023/02/11 10:31:10;;;;;;;;;79.67;63.00;;;;;;;;5037987;28;11528;-73
2023/02/11 10:33:44;;;;;;;;;84.67;68.00;;;;;;;;5040462;28;11516;-73
2023/02/11 10:36:12;;;;;;;;;80.33;65.67;;;;;;;;5039895;28;8880;-74
2023/02/11 10:38:41;;;;;;;;;87.33;67.33;;;;;;;;5040320;28;8882;-73
2023/02/11 10:41:10;;;;;;;;;84.33;70.67;;;;;;;;5041493;28;8889;-74
2023/02/11 10:43:38;;;;;;;;;80.00;63.00;;;;;;;;5039437;28;12944;-73
2023/02/11 10:46:06;;;;;;;;;82.67;65.00;;;;;;;;5039859;28;11537;-74
2023/02/11 10:48:41;;;;;;;;;79.75;62.00;;;;;;;;5039122;28;11555;-73
2023/02/11 10:51:17;;;;;;;;;82.00;63.67;;;;;;;;5041844;28;11493;-73
2023/02/11 10:53:47;;;;;;;;;79.50;61.00;;;;;;;;5041345;28;11719;-73
2023/02/11 10:56:24;;;;;;;;;75.25;61.75;;;;;;;;5041537;28;11607;-73
2023/02/11 10:58:58;;;;;;;;;74.75;58.00;;;;;;;;5041497;28;11541;-72
2023/02/11 11:01:40;;;;;;;;;72.75;58.50;;;;;;;;5040722;28;11601;-73
2023/02/11 11:04:10;;;;;;;;;78.50;62.75;;;;;;;;5039806;28;11581;-73
2023/02/11 11:06:37;;;;;;;;;80.50;63.75;;;;;;;;5047249;28;11573;-74
2023/02/11 11:09:05;;;;;;;;;78.75;63.00;;;;;;;;5044853;28;11514;-74
2023/02/11 11:11:33;;;;;;;;;74.25;58.50;;;;;;;;5042350;28;11546;-73
2023/02/11 11:14:02;;;;;;;;;85.00;62.50;;;;;;;;5042835;28;11678;-74
2023/02/11 11:16:31;;;;;;;;;79.50;62.75;;;;;;;;5044143;28;11576;-74
2023/02/11 11:19:21;;;;;;;;;68.00;55.25;;;;;;;;5043655;28;11663;-74
2023/02/11 11:21:52;;;;;;;;;78.75;62.75;;;;;;;;5020964;28;11673;-74
2023/02/11 11:24:23;;;;;;;;;75.75;60.75;;;;;;;;5043847;28;11570;-74
2023/02/11 11:26:54;;;;;;;;;73.75;59.25;;;;;;;;5043884;28;11465;-74
2023/02/11 11:29:28;;;;;;;;;77.00;60.00;;;;;;;;5042111;28;11550;-73
2023/02/11 11:31:56;;;;;;;;;68.25;55.50;;;;;;;;5039861;28;11488;-73
2023/02/11 11:34:28;;;;;;;;;73.75;55.25;;;;;;;;5036293;28;11598;-74
2023/02/11 11:36:56;;;;;;;;;65.00;52.50;;;;;;;;5039252;28;11571;-72
2023/02/11 11:39:38;;;;;;;;;63.75;51.50;;;;;;;;5046714;28;12500;-71
2023/02/11 11:42:24;;;;;;;;;65.00;52.75;;;;;;;;5041210;28;11682;-72
2023/02/11 11:44:57;;;;;;;;;68.50;54.00;;;;;;;;5036927;28;11634;-74
2023/02/11 11:47:34;;;;;;;;;64.50;50.50;;;;;;;;5039499;28;12799;-71
2023/02/11 11:50:25;;;;;;;;;65.00;52.75;;;;;;;;5038985;28;11730;-72
2023/02/11 11:52:57;;;;;;;;;69.25;54.50;;;;;;;;5038603;28;11583;-72
2023/02/11 11:55:28;;;;;;;;;68.00;55.00;;;;;;;;5037935;28;12406;-72
2023/02/11 11:57:56;;;;;;;;;65.00;51.00;;;;;;;;5037832;28;11684;-73
2023/02/11 12:00:28;;;;;;;;;59.00;47.50;;;;;;;;5041774;28;12519;-73
2023/02/11 12:03:29;;;;;;;;;62.00;52.00;;;;;;;;5042060;28;11695;-73
2023/02/11 12:06:07;;;;;;;;;63.25;51.75;;;;;;;;5039252;28;11672;-73
2023/02/11 12:08:44;;;;;;;;;74.25;57.25;;;;;;;;5041915;28;11659;-74
2023/02/11 12:11:19;;;;;;;;;62.50;51.75;;;;;;;;5036668;28;11578;-74
2023/02/11 12:13:57;;;;;;;;;73.50;57.50;;;;;;;;5039957;28;11573;-74
2023/02/11 12:16:34;;;;;;;;;65.75;53.00;;;;;;;;5041603;28;11581;-72
2023/02/11 12:19:20;;;;;;;;;65.00;51.75;;;;;;;;5039898;28;11608;-74
2023/02/11 12:21:56;;;;;;;;;63.50;52.00;;;;;;;;5036568;28;11623;-74
2023/02/11 12:24:45;;;;;;;;;71.75;54.25;;;;;;;;5038701;28;11562;-73
2023/02/11 12:27:18;;;;;;;;;64.50;52.00;;;;;;;;5043083;28;11567;-75
2023/02/11 12:29:56;;;;;;;;;65.50;52.00;;;;;;;;5045065;28;12400;-74
2023/02/11 12:32:30;;;;;;;;;60.50;50.50;;;;;;;;5039597;28;11519;-75
2023/02/11 12:35:15;;;;;;;;;63.50;50.25;;;;;;;;5040964;28;11568;-75
2023/02/11 12:37:57;;;;;;;;;66.00;51.50;;;;;;;;5044631;28;11684;-75
2023/02/11 12:40:32;;;;;;;;;61.25;51.00;;;;;;;;5041524;28;11552;-74
2023/02/11 12:43:17;;;;;;;;;63.25;51.25;;;;;;;;5042148;28;12453;-75
2023/02/11 12:46:34;;;;;;;;;62.25;51.50;;;;;;;;5044872;28;11587;-74
2023/02/11 12:49:11;;;;;;;;;62.75;50.75;;;;;;;;4997223;28;11753;-75
2023/02/11 12:51:54;;;;;;;;;53.50;44.75;;;;;;;;4995880;28;11612;-76
2023/02/11 12:54:26;;;;;;;;;64.75;52.00;;;;;;;;5026735;28;11727;-76
2023/02/11 12:57:01;;;;;;;;;59.00;49.00;;;;;;;;5039849;28;11572;-74
2023/02/11 12:59:48;;;;;;;;;62.25;50.00;;;;;;;;5040904;28;12201;-75
2023/02/11 13:02:21;;;;;;;;;54.50;44.00;;;;;;;;5042537;28;11531;-72
2023/02/11 13:04:52;;;;;;;;;60.50;49.50;;;;;;;;5043290;28;11593;-71
2023/02/11 13:07:26;;;;;;;;;57.50;49.25;;;;;;;;5042309;28;11499;-72
2023/02/11 13:09:57;;;;;;;;;65.25;52.75;;;;;;;;5039211;28;11520;-73
2023/02/11 13:15:15;;;;;;;;;63.50;47.50;;;;;;;;5046187;28;11923;-72
2023/02/11 13:17:48;;;;;;;;;61.75;50.75;;;;;;;;5042562;28;11683;-71
2023/02/11 13:20:27;;;;;;;;;52.75;45.00;;;;;;;;5038151;28;12321;-71
2023/02/11 13:23:01;;;;;;;;;67.25;52.50;;;;;;;;5035486;28;11585;-71
2023/02/11 13:25:33;;;;;;;;;62.00;51.00;;;;;;;;5038506;28;11624;-71
2023/02/11 13:28:05;;;;;;;;;66.25;54.00;;;;;;;;5040626;28;11550;-71
2023/02/11 13:30:38;;;;;;;;;57.75;46.75;;;;;;;;5036121;28;11513;-72
2023/02/11 13:33:17;;;;;;;;;58.75;46.50;;;;;;;;5037974;28;11468;-72
2023/02/11 13:35:50;;;;;;;;;56.00;46.25;;;;;;;;5038168;28;11801;-71
2023/02/11 13:38:22;;;;;;;;;62.25;50.00;;;;;;;;5037680;28;11462;-72
2023/02/11 13:41:03;;;;;;;;;53.00;43.75;;;;;;;;5038724;28;11539;-71
2023/02/11 13:43:32;;;;;;;;;59.50;47.00;;;;;;;;5035652;28;11485;-71
2023/02/11 13:46:02;;;;;;;;;62.75;51.00;;;;;;;;5042817;28;11877;-72
2023/02/11 13:48:32;;;;;;;;;63.00;47.50;;;;;;;;5036993;28;11600;-72
2023/02/11 13:51:02;;;;;;;;;60.00;45.50;;;;;;;;5037454;28;11539;-71
2023/02/11 13:53:30;;;;;;;;;59.25;47.25;;;;;;;;5039357;28;11554;-72
2023/02/11 13:56:07;;;;;;;;;49.25;42.25;;;;;;;;5041756;28;11532;-72
2023/02/11 13:58:38;;;;;;;;;60.00;47.00;;;;;;;;5042415;28;11478;-72
2023/02/11 14:01:07;;;;;;;;;55.75;46.00;;;;;;;;5037012;28;11498;-73
2023/02/11 14:09:56;;;;;;;;;54.75;43.50;;;;;;;;5040303;28;11511;-72
2023/02/11 14:12:35;;;;;;;;;57.25;49.00;;;;;;;;5039590;28;11714;-72
2023/02/11 14:15:23;;;;;;;;;62.00;50.25;;;;;;;;5040345;28;11457;-72
2023/02/11 14:17:51;;;;;;;;;54.50;46.25;;;;;;;;5034396;28;11560;-73
2023/02/11 14:20:49;;;;;;;;;53.25;42.75;;;;;;;;5035231;28;11443;-72
2023/02/11 14:23:26;;;;;;;;;61.75;48.50;;;;;;;;4993574;28;11538;-73
2023/02/11 14:26:09;;;;;;;;;58.50;45.50;;;;;;;;5026365;28;11501;-73
2023/02/11 14:28:37;;;;;;;;;53.00;44.00;;;;;;;;5036946;28;12305;-72
2023/02/11 14:31:09;;;;;;;;;54.50;42.50;;;;;;;;5040664;28;11450;-72
2023/02/11 14:34:07;;;;;;;;;52.25;41.50;;;;;;;;5039440;28;11525;-72
2023/02/11 14:37:09;;;;;;;;;64.75;53.75;;;;;;;;5023396;28;11565;-72
2023/02/11 14:39:51;;;;;;;;;58.50;47.75;;;;;;;;4974102;28;11545;-73
2023/02/11 14:42:21;;;;;;;;;54.25;43.75;;;;;;;;5029882;28;11637;-72
2023/02/11 14:44:50;;;;;;;;;67.50;50.25;;;;;;;;5035764;28;11662;-73
2023/02/11 14:47:19;;;;;;;;;61.50;49.75;;;;;;;;5037929;28;11548;-72
2023/02/11 14:49:49;;;;;;;;;57.75;45.50;;;;;;;;5035972;28;11522;-73
2023/02/11 14:52:23;;;;;;;;;65.50;49.00;;;;;;;;5037532;28;11525;-73
2023/02/11 14:54:51;;;;;;;;;59.00;49.00;;;;;;;;5035640;28;12311;-72
2023/02/11 14:57:20;;;;;;;;;55.75;48.25;;;;;;;;5036522;28;11504;-72
2023/02/11 14:59:57;;;;;;;;;58.50;47.25;;;;;;;;5038209;28;11506;-72
2023/02/11 15:02:28;;;;;;;;;56.00;43.75;;;;;;;;5035320;28;11460;-72